Latest Coastal Weather Observations for Rottnest Island

IDW60701

Issued at 6:12 pm WST Friday 27 March 2015 (issued every 10 minutes, with the page automatically refreshed every 10 minutes)

About coastal observations | Map of coastal stations | Coastal observations for WA | Marine services | Other Formats
Station Details ID: 009193 Name: ROTTNEST ISLAND Lat: -32.01 Lon: 115.50 Height: 43.1 m
Data from the previous 72 hours. | See also: Recent months at Rottnest Island
Date/Time
WST
Temp

°C
Wind Pressure Rain
since 9am
mm
Weather Cloud Vis
km
Sea
Height
m
Swell
Dir
 
Speed
knots
Gust
knots
hPa Trend Height
m
Period
s
Dir
27/06:00pm 21.4 SSW 14 18 1017.7 - 0.0 - - - - - - -
27/05:30pm 21.8 SSW 17 20 1017.7 - 0.0 - - - - - - -
27/05:00pm 22.3 SSW 17 21 1017.7 - 0.0 - - - - - - -
27/04:30pm 22.7 SSW 16 21 1017.5 - 0.0 - - - - - - -
27/04:00pm 22.7 SSW 17 20 1017.5 - 0.0 - - - - - - -
27/03:30pm 23.0 SSW 15 19 1017.6 - 0.0 - - - - - - -
27/03:00pm 23.1 SSW 15 19 1017.8 - 0.0 - - - - - - -
27/02:30pm 23.2 SSW 15 18 1017.9 - 0.0 - - - - - - -
27/02:00pm 22.6 SSW 15 17 1018.2 - 0.0 - - - - - - -
27/01:30pm 23.6 SSW 13 16 1018.6 - 0.0 - - - - - - -
27/01:00pm 21.9 S 11 14 1018.7 - 0.0 - - - - - - -
27/12:30pm 23.1 S 10 13 1019.2 - 0.0 - - - - - - -
27/12:00pm 22.2 S 9 11 1019.6 - 0.0 - - - - - - -
27/11:30am 21.5 S 8 10 1019.9 - 0.0 - - - - - - -
27/11:00am 22.1 SSE 9 10 1020.0 - 0.0 - - - - - - -
27/10:30am 21.9 SSE 8 10 1020.2 - 0.0 - - - - - - -
27/10:00am 21.8 ESE 8 11 1020.3 - 0.0 - - - - - - -
27/09:30am 20.9 ESE 8 12 1020.4 - 0.0 - - - - - - -
27/09:00am 21.1 ESE 7 10 1020.4 - 2.0 - - - - - - -
27/08:30am 20.2 E 9 12 1020.4 - 2.0 - - - - - - -
27/08:00am 20.0 E 9 13 1020.2 - 2.0 - - - - - - -
27/07:30am 19.4 ENE 10 14 1020.0 - 2.0 - - - - - - -
27/07:00am 18.5 E 9 12 1020.0 - 2.0 - - - - - - -
27/06:30am 18.2 E 9 13 1019.8 - 2.0 - - - - - - -
27/06:00am 18.3 ESE 8 11 1019.8 - 2.0 - - - - - - -
27/05:30am 18.6 ESE 8 12 1019.6 - 2.0 - - - - - - -
27/05:00am 18.7 E 8 12 1019.3 - 2.0 - - - - - - -
27/04:30am 18.6 E 8 12 1019.3 - 2.0 - - - - - - -
27/04:00am 18.8 E 8 11 1019.3 - 2.0 - - - - - - -
27/03:30am 18.6 E 9 11 1019.5 - 2.0 - - - - - - -
27/03:00am 18.8 E 9 13 1019.7 - 2.0 - - - - - - -
27/02:30am 19.2 E 9 13 1019.7 - 2.0 - - - - - - -
27/02:00am 19.2 E 9 13 1019.9 - 2.0 - - - - - - -
27/01:30am 19.4 ESE 9 14 1020.3 - 2.0 - - - - - - -
27/01:00am 19.6 ESE 10 13 1020.7 - 2.0 - - - - - - -
27/12:30am 19.7 ESE 10 14 1020.8 - 2.0 - - - - - - -
27/12:00am 19.7 ESE 9 13 1020.8 - 2.0 - - - - - - -
 
Date/Time
WST
Temp

°C
Wind Pressure Rain
since 9am
mm
Weather Cloud Vis
km
Sea
Height
m
Swell
Dir
 
Speed
knots
Gust
knots
hPa Trend Height
m
Period
s
Dir
26/11:30pm 19.8 SE 13 17 1020.9 - 2.0 - - - - - - -
26/11:00pm 19.8 SE 11 14 1021.2 - 2.0 - - - - - - -
26/10:30pm 20.5 SE 11 13 1021.4 - 1.6 - - - - - - -
26/10:00pm 19.8 SSE 9 11 1021.7 - 1.6 - - - - - - -
26/09:30pm 19.1 SE 10 13 1021.8 - 1.6 - - - - - - -
26/09:00pm 19.0 NNE 11 14 1022.3 - 0.8 Rain - - - - - -
26/08:30pm 20.5 N 8 11 1021.9 - 0.2 - - - - - - -
26/08:00pm 21.1 NNW 6 8 1021.7 - 0.2 - - - - - - -
26/07:30pm 22.0 NW 8 9 1021.6 - 0.0 - - - - - - -
26/07:00pm 22.7 NNW 9 13 1021.1 - 0.0 - - - - - - -
26/06:30pm 22.8 NNW 4 6 1020.4 - 0.0 - - - - - - -
26/06:00pm 23.6 NNW 1 4 1020.2 - 0.0 - - - - - - -
26/05:30pm 23.1 SSW 7 8 1019.7 - 0.0 - - - - - - -
26/05:00pm 23.5 SSW 9 11 1019.5 - 0.0 - - - - - - -
26/04:30pm 25.4 WSW 7 9 1019.6 - 0.0 - - - - - - -
26/04:00pm 25.8 WNW 8 10 1019.4 - 0.0 - - - - - - -
26/03:30pm 26.5 N 7 9 1019.1 - 0.0 - - - - - - -
26/03:00pm 28.1 ENE 10 13 1019.1 - 0.0 - - - - - - -
26/02:30pm 28.4 ENE 11 16 1019.3 - 0.0 - - - - - - -
26/02:00pm 28.5 E 11 16 1019.6 - 0.0 - - - - - - -
26/01:30pm 28.5 E 11 16 1020.0 - 0.0 - - - - - - -
26/01:00pm 28.0 E 12 16 1020.6 - 0.0 - - - - - - -
26/12:30pm 27.7 ENE 14 20 1021.0 - 0.0 - - - - - - -
26/12:00pm 26.1 ENE 14 21 1021.3 - 0.0 - - - - - - -
26/11:30am 25.7 NE 15 21 1021.8 - 0.0 - - - - - - -
26/11:00am 25.6 ENE 16 23 1022.0 - 0.0 - - - - - - -
26/10:30am 24.2 ENE 18 25 1022.4 - 0.0 - - - - - - -
26/10:00am 22.8 NE 18 24 1022.6 - 0.0 - - - - - - -
26/09:30am 21.9 NE 21 29 1022.7 - 0.0 - - - - - - -
26/09:16am 21.3 ENE 17 27 1022.6 - 0.0 - - - - - - -
26/09:00am 20.7 ENE 18 25 1022.8 - - - - - - - - -
26/08:30am 19.7 ENE 20 27 1022.8 - - - - - - - - -
26/08:15am 19.4 ENE 16 26 1022.9 - - - - - - - - -
26/08:00am 18.7 ENE 20 28 1022.7 - - - - - - - - -
26/07:30am 18.2 ENE 20 28 1022.6 - - - - - - - - -
26/07:00am 18.0 ENE 20 27 1022.5 - - - - - - - - -
26/06:35am 17.8 ENE 18 28 1022.3 - - - - - - - - -
26/06:30am 17.8 ENE 19 27 1022.4 - - - - - - - - -
26/06:17am 17.6 ENE 18 28 1022.4 - - - - - - - - -
26/06:00am 17.8 ENE 18 26 1022.3 - - - - - - - - -
26/05:30am 17.7 E 17 25 1022.2 - - - - - - - - -
26/05:00am 17.9 E 16 27 1022.1 - - - - - - - - -
26/04:55am 17.8 E 17 27 1022.1 - - - - - - - - -
26/04:30am 18.0 E 17 25 1021.9 - - - - - - - - -
26/04:00am 17.6 E 13 18 1022.0 - - - - - - - - -
26/03:30am 17.7 E 14 20 1022.0 - - - - - - - - -
26/03:00am 17.8 E 15 22 1022.0 - 0.0 - - - - - - -
26/02:30am 18.1 E 15 24 1022.1 - - - - - - - - -
26/02:00am 18.4 E 16 24 1022.3 - - - - - - - - -
26/01:30am 18.8 E 17 25 1022.4 - - - - - - - - -
26/01:07am 19.0 E 15 27 1022.4 - - - - - - - - -
26/01:00am 19.1 E 15 23 1022.5 - - - - - - - - -
26/12:30am 19.8 E 16 26 1022.7 - - - - - - - - -
26/12:00am 20.2 ESE 15 21 1022.5 - - - - - - - - -
 
Date/Time
WST
Temp

°C
Wind Pressure Rain
since 9am
mm
Weather Cloud Vis
km
Sea
Height
m
Swell
Dir
 
Speed
knots
Gust
knots
hPa Trend Height
m
Period
s
Dir
25/11:30pm 20.7 ESE 17 22 1022.4 - - - - - - - - -
25/11:00pm 21.3 ESE 15 24 1022.1 - - - - - - - - -
25/10:30pm 21.6 ESE 12 17 1022.2 - - - - - - - - -
25/10:00pm 21.7 ESE 11 14 1022.3 - - - - - - - - -
25/09:30pm 22.1 ESE 11 16 1022.2 - - - - - - - - -
25/09:00pm 22.7 ESE 13 18 1022.1 - 0.0 - - - - - - -
25/08:30pm 23.0 ESE 12 16 1021.9 - - - - - - - - -
25/08:00pm 23.5 ESE 12 18 1021.7 - - - - - - - - -
25/07:30pm 24.0 ESE 13 19 1021.4 - - - - - - - - -
25/07:00pm 23.5 SE 13 17 1021.2 - - - - - - - - -
25/06:30pm 21.7 S 17 21 1021.1 - - - - - - - - -
25/06:00pm 21.6 S 18 21 1021.1 - - - - - - - - -
25/05:30pm 22.0 S 17 21 1021.2 - - - - - - - - -
25/05:00pm 22.5 S 17 21 1021.3 - - - - - - - - -
25/04:30pm 22.7 S 18 21 1021.4 - - - - - - - - -
25/04:00pm 23.4 S 15 20 1021.6 - - - - - - - - -
25/03:30pm 23.5 S 17 19 1021.6 - - - - - - - - -
25/03:00pm 23.5 SSW 17 20 1021.9 - - - - - - - - -
25/02:30pm 23.7 SSW 14 17 1022.0 - - - - - - - - -
25/02:00pm 23.9 S 11 14 1022.3 - - - - - - - - -
25/01:30pm 23.6 S 10 12 1022.8 - - - - - - - - -
25/01:00pm 23.6 SSE 11 13 1023.2 - - - - - - - - -
25/10:30am 21.9 E 13 19 1024.7 - 0.0 - - - - - - -
25/10:00am 20.8 E 16 23 1024.7 - 0.0 - - - - - - -
25/09:30am 19.8 E 15 19 1024.8 - 0.0 - - - - - - -
25/09:07am 19.4 E 16 26 1024.9 - 0.0 - - - - - - -
25/09:00am 19.2 E 17 26 1024.9 - 0.0 - - - - - - -
25/08:30am 18.1 E 16 23 1024.8 - 0.0 - - - - - - -
25/08:00am 17.5 E 17 24 1024.7 - 0.0 - - - - - - -
25/07:30am 16.9 E 16 24 1024.6 - 0.0 - - - - - - -
25/07:00am 16.6 E 16 24 1024.4 - 0.0 - - - - - - -
25/06:30am 16.4 E 14 19 1024.2 - 0.0 - - - - - - -
25/06:00am 16.3 E 13 17 1023.9 - 0.0 - - - - - - -
25/05:30am 16.6 E 12 19 1023.3 - 0.0 - - - - - - -
25/05:00am 16.3 E 11 17 1023.2 - 0.0 - - - - - - -
25/04:30am 16.6 ESE 11 14 1022.9 - 0.0 - - - - - - -
25/04:00am 17.1 E 13 19 1022.7 - 0.0 - - - - - - -
25/03:30am 17.1 ESE 13 17 1022.6 - 0.0 - - - - - - -
25/03:00am 17.4 ESE 15 26 1022.5 - 0.0 - - - - - - -
25/02:54am 17.5 E 16 26 1022.5 - 0.0 - - - - - - -
25/02:30am 17.8 ESE 15 23 1022.4 - 0.0 - - - - - - -
25/02:00am 17.9 ESE 14 20 1022.4 - 0.0 - - - - - - -
25/01:30am 18.3 ESE 16 22 1022.3 - 0.0 - - - - - - -
25/01:00am 18.5 SE 17 24 1022.1 - 0.0 - - - - - - -
25/12:36am 18.8 SE 18 28 1022.2 - 0.0 - - - - - - -
25/12:30am 19.1 SE 19 25 1022.1 - 0.0 - - - - - - -
25/12:00am 19.2 SE 21 25 1022.1 - 0.0 - - - - - - -
 
Date/Time
WST
Temp

°C
Wind Pressure Rain
since 9am
mm
Weather Cloud Vis
km
Sea
Height
m
Swell
Dir
 
Speed
knots
Gust
knots
hPa Trend Height
m
Period
s
Dir
24/11:30pm 19.6 SE 22 29 1021.9 - 0.0 - - - - - - -
24/11:00pm 20.0 SSE 23 30 1021.6 - 0.0 - - - - - - -
24/10:30pm 20.3 SSE 25 30 1021.6 - 0.0 - - - - - - -
24/10:00pm 20.5 SSE 26 31 1021.6 - 0.0 - - - - - - -
24/09:30pm 20.7 SSE 26 32 1021.3 - 0.0 - - - - - - -
24/09:00pm 20.9 S 27 32 1021.1 - 0.0 - - - - - - -
24/08:30pm 21.0 S 29 34 1020.7 - 0.0 - - - - - - -
24/08:00pm 20.6 S 27 35 1020.8 - 0.0 - - - - - - -
24/07:30pm 20.0 S 26 34 1020.9 - 0.0 - - - - - - -
24/07:00pm 19.8 S 25 32 1020.7 - 0.0 - - - - - - -
24/06:30pm 19.9 S 25 31 1020.7 - 0.0 - - - - - - -

Other Formats:

Comma delimited format used in spreadsheet applications
http://www.bom.gov.au/fwo/IDW60701/IDW60701.94602.axf

JavaScript Object Notation format (JSON) in row-major order
http://www.bom.gov.au/fwo/IDW60701/IDW60701.94602.json